createdAt,value
2024-01-16T00:00:44.602Z,94261.00
2024-01-16T00:01:45.506Z,94262.00
2024-01-16T00:02:44.701Z,94264.00
2024-01-16T00:03:44.630Z,94265.00
2024-01-16T00:04:44.622Z,94261.00
2024-01-16T00:05:44.736Z,94261.00
2024-01-16T00:06:47.383Z,94263.00
2024-01-16T00:07:44.632Z,94266.00
2024-01-16T00:08:45.612Z,94264.00
2024-01-16T00:09:44.608Z,94268.00
2024-01-16T00:10:44.664Z,94271.00
2024-01-16T00:11:44.796Z,94270.00
2024-01-16T00:12:44.661Z,94269.00
2024-01-16T00:13:45.542Z,94264.00
2024-01-16T00:14:44.847Z,94261.00
2024-01-16T00:15:44.642Z,94261.00
2024-01-16T00:16:44.676Z,94262.00
2024-01-16T00:17:44.831Z,94266.00
2024-01-16T00:18:44.713Z,94266.00
2024-01-16T00:19:44.652Z,94268.00
2024-01-16T00:20:44.814Z,94265.00
2024-01-16T00:21:44.678Z,94266.00
2024-01-16T00:22:44.632Z,94270.00
2024-01-16T00:23:45.659Z,94273.00
2024-01-16T00:24:44.632Z,94277.00
2024-01-16T00:25:44.702Z,94281.00
2024-01-16T00:26:44.820Z,94278.00
2024-01-16T00:27:44.666Z,94274.00
2024-01-16T00:28:44.683Z,94273.00
2024-01-16T00:29:44.752Z,94271.00
2024-01-16T00:30:44.682Z,94272.00
2024-01-16T00:32:44.859Z,94276.00
2024-01-16T00:33:44.765Z,94281.00
2024-01-16T00:34:44.672Z,94282.00
2024-01-16T00:35:44.789Z,94282.00
2024-01-16T00:36:44.676Z,94285.00
2024-01-16T00:37:44.669Z,94285.00
2024-01-16T00:38:44.718Z,94285.00
2024-01-16T00:39:44.677Z,94286.00
2024-01-16T00:40:44.694Z,94286.00
2024-01-16T00:41:44.779Z,94286.00
2024-01-16T00:42:44.712Z,94286.00
2024-01-16T00:43:45.017Z,94289.00
2024-01-16T00:44:44.745Z,94289.00
2024-01-16T00:45:44.682Z,94290.00
2024-01-16T00:46:44.686Z,94294.00
2024-01-16T00:47:44.772Z,94295.00
2024-01-16T00:48:44.841Z,94295.00
2024-01-16T00:49:44.730Z,94293.00
2024-01-16T00:50:44.815Z,94292.00
2024-01-16T00:51:44.741Z,94291.00
2024-01-16T00:52:44.688Z,94284.00
2024-01-16T00:53:44.935Z,94288.00
2024-01-16T00:54:44.765Z,94290.00
2024-01-16T00:55:44.697Z,94294.00
2024-01-16T00:56:44.804Z,94293.00
2024-01-16T00:57:44.711Z,94297.00
2024-01-16T00:58:44.724Z,94298.00
2024-01-16T00:59:44.735Z,94301.00
2024-01-16T01:00:44.756Z,94304.00
2024-01-16T01:01:44.737Z,94306.00
2024-01-16T01:02:44.775Z,94308.00
2024-01-16T01:03:44.813Z,94311.00
2024-01-16T01:04:44.782Z,94312.00
2024-01-16T01:05:44.994Z,94313.00
2024-01-16T01:06:44.735Z,94311.00
2024-01-16T01:07:44.727Z,94312.00
2024-01-16T01:08:44.839Z,94310.00
2024-01-16T01:09:44.796Z,94310.00
2024-01-16T01:10:44.819Z,94312.00
2024-01-16T01:11:44.883Z,94317.00
2024-01-16T01:12:44.736Z,94320.00
2024-01-16T01:13:44.797Z,94326.00
2024-01-16T01:14:44.830Z,94327.00
2024-01-16T01:15:44.745Z,94330.00
2024-01-16T01:16:44.758Z,94331.00
2024-01-16T01:17:44.847Z,94329.00
2024-01-16T01:18:44.895Z,94326.00
2024-01-16T01:19:44.726Z,94328.00
2024-01-16T01:20:44.955Z,94330.00
2024-01-16T01:21:44.745Z,94331.00
2024-01-16T01:22:44.748Z,94332.00
2024-01-16T01:23:44.833Z,94331.00
2024-01-16T01:24:44.762Z,94329.00
2024-01-16T01:25:44.765Z,94330.00
2024-01-16T01:26:44.863Z,94330.00
2024-01-16T01:27:44.767Z,94333.00
2024-01-16T01:28:44.785Z,94333.00
2024-01-16T01:29:44.889Z,94335.00
2024-01-16T01:30:44.805Z,94335.00
2024-01-16T01:31:44.795Z,94335.00
2024-01-16T01:32:44.858Z,94335.00
2024-01-16T01:33:44.829Z,94331.00
2024-01-16T01:34:44.764Z,94334.00
2024-01-16T01:35:44.843Z,94335.00
2024-01-16T01:36:44.982Z,94333.00
2024-01-16T01:37:44.784Z,94334.00
2024-01-16T01:38:44.869Z,94335.00
2024-01-16T01:39:44.798Z,94334.00
2024-01-16T01:40:44.772Z,94340.00
2024-01-16T01:41:44.797Z,94339.00
2024-01-16T01:42:44.766Z,94338.00
2024-01-16T01:43:45.092Z,94337.00
2024-01-16T01:44:44.915Z,94339.00
2024-01-16T01:45:44.745Z,94338.00
2024-01-16T01:46:44.794Z,94339.00
2024-01-16T01:47:44.848Z,94341.00
2024-01-16T01:48:44.832Z,94344.00
2024-01-16T01:49:44.774Z,94346.00
2024-01-16T01:50:44.880Z,94350.00
2024-01-16T01:51:45.548Z,94351.00
2024-01-16T01:52:44.804Z,94353.00
2024-01-16T01:53:44.907Z,94353.00
2024-01-16T01:54:44.771Z,94354.00
2024-01-16T01:55:44.789Z,94354.00
2024-01-16T01:56:44.891Z,94355.00
2024-01-16T01:57:44.853Z,94358.00
2024-01-16T01:58:45.044Z,94360.00
2024-01-16T01:59:44.859Z,94364.00
2024-01-16T02:00:44.813Z,94361.00
2024-01-16T02:01:44.795Z,94362.00
2024-01-16T02:02:44.883Z,94363.00
2024-01-16T02:03:44.852Z,94362.00
2024-01-16T02:04:44.818Z,94366.00
2024-01-16T02:05:44.893Z,94367.00
2024-01-16T02:06:44.793Z,94371.00
2024-01-16T02:07:44.802Z,94371.00
2024-01-16T02:08:44.872Z,94370.00
2024-01-16T02:09:44.818Z,94371.00
2024-01-16T02:10:44.784Z,94372.00
2024-01-16T02:11:44.886Z,94371.00
2024-01-16T02:12:44.838Z,94375.00
2024-01-16T02:13:44.808Z,94374.00
2024-01-16T02:14:44.854Z,94375.00
2024-01-16T02:15:44.788Z,94375.00
2024-01-16T02:16:44.804Z,94376.00
2024-01-16T02:17:44.878Z,94377.00
2024-01-16T02:18:44.886Z,94375.00
2024-01-16T02:19:44.833Z,94375.00
2024-01-16T02:20:44.914Z,94377.00
2024-01-16T02:21:45.862Z,94379.00
2024-01-16T02:22:44.809Z,94380.00
2024-01-16T02:23:44.947Z,94379.00
2024-01-16T02:24:44.843Z,94381.00
2024-01-16T02:25:44.854Z,94382.00
2024-01-16T02:26:44.914Z,94383.00
2024-01-16T02:27:44.791Z,94384.00
2024-01-16T02:28:44.845Z,94383.00
2024-01-16T02:29:45.128Z,94380.00
2024-01-16T02:30:44.934Z,94381.00
2024-01-16T02:31:44.818Z,94378.00
2024-01-16T02:32:44.905Z,94382.00
2024-01-16T02:33:45.139Z,94384.00
2024-01-16T02:34:44.904Z,94386.00
2024-01-16T02:35:44.906Z,94385.00
2024-01-16T02:36:44.840Z,94386.00
2024-01-16T02:37:44.839Z,94388.00
2024-01-16T02:38:46.646Z,94388.00
2024-01-16T02:39:44.848Z,94388.00
2024-01-16T02:40:44.830Z,94385.00
2024-01-16T02:41:45.010Z,94383.00
2024-01-16T02:42:44.861Z,94383.00
2024-01-16T02:43:44.865Z,94386.00
2024-01-16T02:44:44.971Z,94385.00
2024-01-16T02:45:44.859Z,94387.00
2024-01-16T02:46:44.837Z,94387.00
2024-01-16T02:47:44.945Z,94390.00
2024-01-16T02:48:44.982Z,94393.00
2024-01-16T02:49:44.906Z,94394.00
2024-01-16T02:50:45.004Z,94394.00
2024-01-16T02:51:44.899Z,94396.00
2024-01-16T02:52:44.873Z,94395.00
2024-01-16T02:53:44.927Z,94393.00
2024-01-16T02:54:44.862Z,94393.00
2024-01-16T02:55:44.870Z,94391.00
2024-01-16T02:56:44.925Z,94394.00
2024-01-16T02:57:44.911Z,94395.00
2024-01-16T02:58:44.896Z,94396.00
2024-01-16T02:59:45.006Z,94397.00
2024-01-16T03:00:44.951Z,94399.00
2024-01-16T03:01:44.904Z,94402.00
2024-01-16T03:02:44.970Z,94405.00
2024-01-16T03:03:44.959Z,94406.00
2024-01-16T03:04:44.903Z,94407.00
2024-01-16T03:05:44.961Z,94407.00
2024-01-16T03:06:44.958Z,94410.00
2024-01-16T03:07:44.894Z,94412.00
2024-01-16T03:08:45.101Z,94416.00
2024-01-16T03:09:44.931Z,94416.00
2024-01-16T03:10:44.947Z,94416.00
2024-01-16T03:11:45.010Z,94417.00
2024-01-16T03:12:44.929Z,94418.00
2024-01-16T03:13:45.062Z,94417.00
2024-01-16T03:14:45.087Z,94416.00
2024-01-16T03:15:44.988Z,94418.00
2024-01-16T03:16:44.982Z,94418.00
2024-01-16T03:17:45.120Z,94419.00
2024-01-16T03:18:45.049Z,94416.00
2024-01-16T03:19:45.044Z,94417.00
2024-01-16T03:20:45.051Z,94415.00
2024-01-16T03:21:44.986Z,94414.00
2024-01-16T03:22:45.021Z,94414.00
2024-01-16T03:23:45.079Z,94415.00
2024-01-16T03:24:45.041Z,94417.00
2024-01-16T03:25:45.049Z,94419.00
2024-01-16T03:26:45.059Z,94420.00
2024-01-16T03:27:45.069Z,94421.00
2024-01-16T03:28:45.170Z,94423.00
2024-01-16T03:29:45.142Z,94424.00
2024-01-16T03:30:45.105Z,94423.00
2024-01-16T03:31:45.056Z,94421.00
2024-01-16T03:32:45.192Z,94419.00
2024-01-16T03:33:45.255Z,94419.00
2024-01-16T03:34:45.113Z,94418.00
2024-01-16T03:35:45.116Z,94417.00
2024-01-16T03:36:45.124Z,94414.00
2024-01-16T03:37:45.098Z,94413.00
2024-01-16T03:38:45.216Z,94413.00
2024-01-16T03:39:45.147Z,94414.00
2024-01-16T03:40:45.120Z,94418.00
2024-01-16T03:41:45.320Z,94417.00
2024-01-16T03:42:45.177Z,94417.00
2024-01-16T03:43:45.164Z,94417.00
2024-01-16T03:44:45.261Z,94417.00
2024-01-16T03:45:45.193Z,94416.00
2024-01-16T03:46:45.243Z,94416.00
2024-01-16T03:47:45.245Z,94417.00
2024-01-16T03:48:45.317Z,94417.00
2024-01-16T03:49:45.269Z,94418.00
2024-01-16T03:50:45.468Z,94419.00
2024-01-16T03:51:45.281Z,94421.00
2024-01-16T03:52:45.287Z,94421.00
2024-01-16T03:53:45.341Z,94423.00
2024-01-16T03:54:45.298Z,94423.00
2024-01-16T03:55:45.299Z,94420.00
2024-01-16T03:56:45.367Z,94423.00
2024-01-16T03:57:45.276Z,94422.00
2024-01-16T03:58:45.321Z,94423.00
2024-01-16T03:59:45.398Z,94425.00
2024-01-16T04:00:45.370Z,94425.00
2024-01-16T04:01:45.361Z,94423.00
2024-01-16T04:02:45.475Z,94425.00
2024-01-16T04:03:45.606Z,94425.00
2024-01-16T04:04:45.345Z,94425.00
2024-01-16T04:05:45.448Z,94427.00
2024-01-16T04:06:45.373Z,94426.00
2024-01-16T04:07:45.401Z,94426.00
2024-01-16T04:08:45.440Z,94430.00
2024-01-16T04:09:45.349Z,94426.00
2024-01-16T04:10:45.399Z,94425.00
2024-01-16T04:11:45.496Z,94425.00
2024-01-16T04:12:45.414Z,94424.00
2024-01-16T04:13:45.631Z,94425.00
2024-01-16T04:14:45.463Z,94424.00
2024-01-16T04:15:45.434Z,94425.00
2024-01-16T04:16:45.442Z,94425.00
2024-01-16T04:17:45.492Z,94427.00
2024-01-16T04:18:45.641Z,94427.00
2024-01-16T04:19:45.461Z,94427.00
2024-01-16T04:20:45.580Z,94426.00
2024-01-16T04:21:45.472Z,94424.00
2024-01-16T04:22:45.477Z,94424.00
2024-01-16T04:23:45.626Z,94424.00
2024-01-16T04:24:45.489Z,94425.00
2024-01-16T04:25:45.557Z,94428.00
2024-01-16T04:26:45.659Z,94428.00
2024-01-16T04:27:45.567Z,94431.00
2024-01-16T04:28:45.596Z,94431.00
2024-01-16T04:29:45.612Z,94431.00
2024-01-16T04:30:45.658Z,94431.00
2024-01-16T04:31:45.595Z,94431.00
2024-01-16T04:32:45.713Z,94434.00
2024-01-16T04:33:45.942Z,94435.00
2024-01-16T04:34:45.613Z,94438.00
2024-01-16T04:35:45.648Z,94435.00
2024-01-16T04:36:45.647Z,94434.00
2024-01-16T04:37:45.629Z,94438.00
2024-01-16T04:38:52.920Z,94437.00
2024-01-16T04:39:52.936Z,94437.00
2024-01-16T04:40:52.884Z,94437.00
2024-01-16T04:41:52.913Z,94436.00
2024-01-16T04:42:52.905Z,94438.00
2024-01-16T04:43:52.899Z,94439.00
2024-01-16T04:44:52.937Z,94442.00
2024-01-16T04:45:52.911Z,94449.00
2024-01-16T04:46:52.940Z,94447.00
2024-01-16T04:47:53.039Z,94450.00
2024-01-16T04:48:53.079Z,94451.00
2024-01-16T04:49:52.949Z,94456.00
2024-01-16T04:50:53.028Z,94454.00
2024-01-16T04:51:52.915Z,94454.00
2024-01-16T04:52:54.504Z,94456.00
2024-01-16T04:53:52.949Z,94456.00
2024-01-16T04:54:52.985Z,94458.00
2024-01-16T04:55:52.932Z,94463.00
2024-01-16T04:56:53.013Z,94464.00
2024-01-16T04:57:52.951Z,94465.00
2024-01-16T04:58:52.949Z,94467.00
2024-01-16T04:59:53.151Z,94468.00
2024-01-16T05:00:52.966Z,94467.00
2024-01-16T05:01:52.962Z,94464.00
2024-01-16T05:02:53.070Z,94463.00
2024-01-16T05:03:53.020Z,94463.00
2024-01-16T05:04:52.951Z,94464.00
2024-01-16T05:05:53.076Z,94467.00
2024-01-16T05:06:52.967Z,94467.00
2024-01-16T05:07:53.052Z,94467.00
2024-01-16T05:08:53.011Z,94467.00
2024-01-16T05:09:52.958Z,94468.00
2024-01-16T05:10:53.026Z,94467.00
2024-01-16T05:11:53.023Z,94468.00
2024-01-16T05:12:52.972Z,94470.00
2024-01-16T05:13:52.945Z,94471.00
2024-01-16T05:14:53.032Z,94468.00
2024-01-16T05:15:53.024Z,94469.00
2024-01-16T05:16:52.972Z,94469.00
2024-01-16T05:17:53.052Z,94468.00
2024-01-16T05:18:52.997Z,94467.00
2024-01-16T05:19:52.978Z,94467.00
2024-01-16T05:20:52.992Z,94468.00
2024-01-16T05:21:52.970Z,94466.00
2024-01-16T05:22:52.965Z,94467.00
2024-01-16T05:23:53.067Z,94465.00
2024-01-16T05:24:52.978Z,94467.00
2024-01-16T05:25:53.022Z,94471.00
2024-01-16T05:26:53.061Z,94473.00
2024-01-16T05:27:53.031Z,94473.00
2024-01-16T05:28:52.975Z,94474.00
2024-01-16T05:29:53.106Z,94474.00
2024-01-16T05:30:53.148Z,94475.00
2024-01-16T05:31:53.039Z,94477.00
2024-01-16T05:32:53.137Z,94476.00
2024-01-16T05:33:53.114Z,94479.00
2024-01-16T05:34:53.025Z,94480.00
2024-01-16T05:35:53.092Z,94479.00
2024-01-16T05:36:53.046Z,94481.00
2024-01-16T05:37:53.029Z,94481.00
2024-01-16T05:38:53.058Z,94479.00
2024-01-16T05:39:53.037Z,94479.00
2024-01-16T05:40:53.013Z,94481.00
2024-01-16T05:41:53.154Z,94483.00
2024-01-16T05:42:53.046Z,94484.00
2024-01-16T05:43:53.120Z,94482.00
2024-01-16T05:44:53.575Z,94480.00
2024-01-16T05:45:53.053Z,94479.00
2024-01-16T05:46:53.054Z,94479.00
2024-01-16T05:47:53.079Z,94478.00
2024-01-16T05:48:53.156Z,94484.00
2024-01-16T05:49:53.141Z,94489.00
2024-01-16T05:50:53.118Z,94489.00
2024-01-16T05:51:53.076Z,94489.00
2024-01-16T05:52:53.046Z,94489.00
2024-01-16T05:53:53.163Z,94489.00
2024-01-16T05:54:53.149Z,94488.00
2024-01-16T05:55:53.174Z,94491.00
2024-01-16T05:56:53.308Z,94489.00
2024-01-16T05:57:53.250Z,94489.00
2024-01-16T05:58:53.445Z,94490.00
2024-01-16T05:59:53.387Z,94491.00
2024-01-16T06:00:53.448Z,94492.00
2024-01-16T06:01:53.444Z,94490.00
2024-01-16T06:02:53.479Z,94489.00
2024-01-16T06:03:53.538Z,94487.00
2024-01-16T06:04:53.614Z,94489.00
2024-01-16T06:05:53.855Z,94488.00
2024-01-16T06:06:53.848Z,94491.00
2024-01-16T06:07:53.785Z,94491.00
2024-01-16T06:08:53.909Z,94493.00
2024-01-16T06:09:53.991Z,94493.00
2024-01-16T06:10:54.060Z,94499.00
2024-01-16T06:11:54.173Z,94500.00
2024-01-16T06:12:54.149Z,94499.00
2024-01-16T06:13:54.224Z,94501.00
2024-01-16T06:14:54.439Z,94501.00
2024-01-16T06:15:54.364Z,94499.00
2024-01-16T06:16:54.386Z,94503.00
2024-01-16T06:17:54.581Z,94503.00
2024-01-16T06:18:54.637Z,94500.00
2024-01-16T06:19:54.608Z,94499.00
2024-01-16T06:20:54.805Z,94500.00
2024-01-16T06:21:54.725Z,94499.00
2024-01-16T06:22:54.780Z,94498.00
2024-01-16T06:23:54.909Z,94498.00
2024-01-16T06:24:55.069Z,94497.00
2024-01-16T06:25:54.953Z,94501.00
2024-01-16T06:26:55.106Z,94501.00
2024-01-16T06:27:55.120Z,94505.00
2024-01-16T06:28:55.251Z,94503.00
2024-01-16T06:29:55.263Z,94510.00
2024-01-16T06:30:55.354Z,94502.00
2024-01-16T06:31:55.421Z,94500.00
2024-01-16T06:32:55.570Z,94502.00
2024-01-16T06:33:55.687Z,94510.00
2024-01-16T06:34:55.579Z,94512.00
2024-01-16T06:35:55.678Z,94508.00
2024-01-16T06:36:55.701Z,94506.00
2024-01-16T06:37:55.759Z,94508.00
2024-01-16T06:38:55.898Z,94506.00
2024-01-16T06:39:55.883Z,94504.00
2024-01-16T06:40:55.988Z,94503.00
2024-01-16T06:41:56.073Z,94510.00
2024-01-16T06:42:56.193Z,94511.00
2024-01-16T06:43:56.242Z,94511.00
2024-01-16T06:44:56.542Z,94507.00
2024-01-16T06:45:56.334Z,94514.00
2024-01-16T06:46:56.380Z,94511.00
2024-01-16T06:47:56.598Z,94515.00
2024-01-16T06:48:56.556Z,94516.00
2024-01-16T06:49:56.605Z,94513.00
2024-01-16T06:50:56.703Z,94515.00
2024-01-16T06:51:56.708Z,94518.00
2024-01-16T06:52:56.786Z,94514.00
2024-01-16T06:53:57.351Z,94513.00
2024-01-16T06:54:56.908Z,94514.00
2024-01-16T06:55:57.037Z,94518.00
2024-01-16T06:56:57.069Z,94515.00
2024-01-16T06:57:57.132Z,94514.00
2024-01-16T06:58:57.551Z,94514.00
2024-01-16T06:59:57.337Z,94520.00
2024-01-16T07:00:57.419Z,94517.00
2024-01-16T07:01:57.398Z,94520.00
2024-01-16T07:02:57.554Z,94518.00
2024-01-16T07:03:57.562Z,94520.00
2024-01-16T07:05:00.457Z,94522.00
2024-01-16T07:05:57.716Z,94524.00
2024-01-16T07:06:57.591Z,94522.00
2024-01-16T07:07:57.559Z,94526.00
2024-01-16T07:08:57.667Z,94528.00
2024-01-16T07:09:58.052Z,94529.00
2024-01-16T07:10:57.631Z,94534.00
2024-01-16T07:11:57.601Z,94530.00
2024-01-16T07:12:57.769Z,94531.00
2024-01-16T07:13:57.595Z,94534.00
2024-01-16T07:14:57.582Z,94529.00
2024-01-16T07:15:57.583Z,94529.00
2024-01-16T07:16:57.577Z,94530.00
2024-01-16T07:17:57.721Z,94528.00
2024-01-16T07:18:57.653Z,94527.00
2024-01-16T07:19:57.587Z,94528.00
2024-01-16T07:20:57.816Z,94526.00
2024-01-16T07:21:57.581Z,94528.00
2024-01-16T07:22:57.621Z,94526.00
2024-01-16T07:23:57.641Z,94529.00
2024-01-16T07:24:57.611Z,94532.00
2024-01-16T07:25:57.613Z,94533.00
2024-01-16T07:26:57.656Z,94535.00
2024-01-16T07:27:57.577Z,94534.00
2024-01-16T07:28:57.627Z,94534.00
2024-01-16T07:29:57.648Z,94534.00
2024-01-16T07:30:57.706Z,94537.00
2024-01-16T07:31:57.609Z,94538.00
2024-01-16T07:32:57.740Z,94540.00
2024-01-16T07:33:57.693Z,94541.00
2024-01-16T07:34:57.612Z,94542.00
2024-01-16T07:35:57.652Z,94547.00
2024-01-16T07:36:57.640Z,94546.00
2024-01-16T07:37:57.614Z,94550.00
2024-01-16T07:38:57.655Z,94552.00
2024-01-16T07:39:58.046Z,94554.00
2024-01-16T07:40:57.602Z,94555.00
2024-01-16T07:41:57.700Z,94559.00
2024-01-16T07:42:57.722Z,94557.00
2024-01-16T07:43:57.782Z,94556.00
2024-01-16T07:44:57.886Z,94555.00
2024-01-16T07:45:57.900Z,94561.00
2024-01-16T07:46:57.910Z,94558.00
2024-01-16T07:47:58.083Z,94558.00
2024-01-16T07:48:58.080Z,94562.00
2024-01-16T07:49:58.131Z,94562.00
2024-01-16T07:50:58.228Z,94563.00
2024-01-16T07:51:58.223Z,94554.00
2024-01-16T07:52:58.328Z,94557.00
2024-01-16T07:53:58.380Z,94554.00
2024-01-16T07:54:58.415Z,94552.00
2024-01-16T07:55:58.526Z,94562.00
2024-01-16T07:56:58.617Z,94561.00
2024-01-16T07:57:58.542Z,94562.00
2024-01-16T07:58:58.582Z,94562.00
2024-01-16T07:59:58.667Z,94565.00
2024-01-16T08:00:58.684Z,94565.00
2024-01-16T08:01:58.715Z,94566.00
2024-01-16T08:02:58.784Z,94566.00
2024-01-16T08:03:58.825Z,94564.00
2024-01-16T08:04:58.748Z,94565.00
2024-01-16T08:05:58.926Z,94565.00
2024-01-16T08:06:58.899Z,94567.00
2024-01-16T08:07:58.821Z,94562.00
2024-01-16T08:08:58.855Z,94561.00
2024-01-16T08:09:58.827Z,94560.00
2024-01-16T08:10:58.847Z,94559.00
2024-01-16T08:11:58.918Z,94556.00
2024-01-16T08:12:58.871Z,94556.00
2024-01-16T08:13:58.878Z,94554.00
2024-01-16T08:14:59.178Z,94557.00
2024-01-16T08:15:58.934Z,94546.00
2024-01-16T08:16:58.997Z,94556.00
2024-01-16T08:17:59.184Z,94553.00
2024-01-16T08:18:59.180Z,94550.00
2024-01-16T08:19:59.156Z,94550.00
2024-01-16T08:20:59.279Z,94549.00
2024-01-16T08:21:59.238Z,94549.00
2024-01-16T08:22:59.363Z,94549.00
2024-01-16T08:23:59.399Z,94546.00
2024-01-16T08:24:59.476Z,94546.00
2024-01-16T08:25:59.580Z,94543.00
2024-01-16T08:26:59.629Z,94543.00
2024-01-16T08:27:59.638Z,94540.00
2024-01-16T08:28:59.706Z,94542.00
2024-01-16T08:29:59.774Z,94539.00
2024-01-16T08:31:00.024Z,94537.00
2024-01-16T08:31:59.891Z,94534.00
2024-01-16T08:33:00.119Z,94536.00
2024-01-16T08:34:00.091Z,94538.00
2024-01-16T08:35:00.130Z,94534.00
2024-01-16T08:36:00.228Z,94533.00
2024-01-16T08:37:00.194Z,94534.00
2024-01-16T08:38:00.234Z,94535.00
2024-01-16T08:39:00.346Z,94523.00
2024-01-16T08:40:00.362Z,94528.00
2024-01-16T08:41:00.457Z,94527.00
2024-01-16T08:42:00.541Z,94517.00
2024-01-16T08:43:00.543Z,94526.00
2024-01-16T08:44:00.596Z,94522.00
2024-01-16T08:45:01.744Z,94531.00
2024-01-16T08:46:00.717Z,94519.00
2024-01-16T08:47:00.989Z,94521.00
2024-01-16T08:48:01.111Z,94515.00
2024-01-16T08:49:00.973Z,94520.00
2024-01-16T08:50:01.783Z,94529.00
2024-01-16T08:51:02.629Z,94518.00
2024-01-16T08:52:01.046Z,94534.00
2024-01-16T08:53:01.139Z,94534.00
2024-01-16T08:54:01.251Z,94532.00
2024-01-16T08:55:01.636Z,94532.00
2024-01-16T08:56:01.336Z,94533.00
2024-01-16T08:57:01.359Z,94539.00
2024-01-16T08:58:01.458Z,94539.00
2024-01-16T08:59:01.592Z,94538.00
2024-01-16T09:00:01.704Z,94534.00
2024-01-16T09:01:01.678Z,94536.00
2024-01-16T09:02:01.670Z,94536.00
2024-01-16T09:03:04.925Z,94537.00
2024-01-16T09:04:01.806Z,94536.00
2024-01-16T09:05:02.284Z,94530.00
2024-01-16T09:06:01.955Z,94536.00
2024-01-16T09:07:02.816Z,94528.00
2024-01-16T09:08:01.729Z,94528.00
2024-01-16T09:09:01.818Z,94529.00
2024-01-16T09:10:02.119Z,94526.00
2024-01-16T09:11:01.794Z,94526.00
2024-01-16T09:12:01.770Z,94523.00
2024-01-16T09:13:01.764Z,94523.00
2024-01-16T09:14:04.409Z,94521.00
2024-01-16T09:15:02.222Z,94519.00
2024-01-16T09:16:01.778Z,94515.00
2024-01-16T09:17:01.788Z,94514.00
2024-01-16T09:18:01.885Z,94510.00
2024-01-16T09:19:01.878Z,94510.00
2024-01-16T09:20:02.186Z,94508.00
2024-01-16T09:21:01.879Z,94510.00
2024-01-16T09:22:01.786Z,94506.00
2024-01-16T09:23:01.836Z,94506.00
2024-01-16T09:24:01.865Z,94509.00
2024-01-16T09:25:02.190Z,94508.00
2024-01-16T09:26:01.783Z,94510.00
2024-01-16T09:27:01.802Z,94511.00
2024-01-16T09:28:01.806Z,94507.00
2024-01-16T09:29:01.788Z,94507.00
2024-01-16T09:30:02.214Z,94507.00
2024-01-16T09:31:01.820Z,94504.00
2024-01-16T09:32:01.807Z,94506.00
2024-01-16T09:33:01.904Z,94507.00
2024-01-16T09:34:03.467Z,94508.00
2024-01-16T09:35:02.175Z,94507.00
2024-01-16T09:36:01.881Z,94508.00
2024-01-16T09:37:01.823Z,94508.00
2024-01-16T09:38:01.799Z,94506.00
2024-01-16T09:39:01.847Z,94506.00
2024-01-16T09:40:02.096Z,94506.00
2024-01-16T09:41:01.872Z,94494.00
2024-01-16T09:42:01.889Z,94511.00
2024-01-16T09:43:01.807Z,94503.00
2024-01-16T09:44:01.799Z,94504.00
2024-01-16T09:45:02.149Z,94504.00
2024-01-16T09:46:03.029Z,94494.00
2024-01-16T09:47:02.626Z,94499.00
2024-01-16T09:48:02.075Z,94505.00
2024-01-16T09:49:01.907Z,94494.00
2024-01-16T09:50:02.138Z,94491.00
2024-01-16T09:51:01.842Z,94491.00
2024-01-16T09:52:01.863Z,94497.00
2024-01-16T09:53:01.892Z,94490.00
2024-01-16T09:54:01.910Z,94481.00
2024-01-16T09:55:02.131Z,94485.00
2024-01-16T09:56:01.817Z,94485.00
2024-01-16T09:57:02.042Z,94488.00
2024-01-16T09:58:01.889Z,94473.00
2024-01-16T09:59:01.919Z,94486.00
2024-01-16T10:00:02.095Z,94480.00
2024-01-16T10:01:02.125Z,94479.00
2024-01-16T10:02:02.142Z,94479.00
2024-01-16T10:03:02.497Z,94475.00
2024-01-16T10:04:02.297Z,94473.00
2024-01-16T10:05:02.663Z,94471.00
2024-01-16T10:06:02.646Z,94472.00
2024-01-16T10:07:02.537Z,94471.00
2024-01-16T10:08:05.106Z,94469.00
2024-01-16T10:09:02.614Z,94475.00
2024-01-16T10:10:03.119Z,94468.00
2024-01-16T10:11:02.507Z,94466.00
2024-01-16T10:12:02.586Z,94467.00
2024-01-16T10:13:02.581Z,94465.00
2024-01-16T10:14:02.615Z,94465.00
2024-01-16T10:15:02.703Z,94449.00
2024-01-16T10:16:02.523Z,94462.00
2024-01-16T10:17:02.518Z,94462.00
2024-01-16T10:18:02.753Z,94458.00
2024-01-16T10:19:02.610Z,94458.00
2024-01-16T10:20:02.616Z,94455.00
2024-01-16T10:21:02.701Z,94454.00
2024-01-16T10:22:02.569Z,94451.00
2024-01-16T10:23:02.566Z,94453.00
2024-01-16T10:24:02.578Z,94451.00
2024-01-16T10:25:02.513Z,94449.00
2024-01-16T10:26:02.530Z,94447.00
2024-01-16T10:27:02.651Z,94444.00
2024-01-16T10:28:02.520Z,94452.00
2024-01-16T10:29:02.554Z,94444.00
2024-01-16T10:30:02.697Z,94447.00
2024-01-16T10:31:02.810Z,94443.00
2024-01-16T10:32:02.647Z,94437.00
2024-01-16T10:33:02.640Z,94435.00
2024-01-16T10:34:02.734Z,94434.00
2024-01-16T10:35:02.736Z,94431.00
2024-01-16T10:36:02.634Z,94435.00
2024-01-16T10:37:02.553Z,94438.00
2024-01-16T10:38:02.591Z,94432.00
2024-01-16T10:39:02.595Z,94428.00
2024-01-16T10:40:02.639Z,94429.00
2024-01-16T10:41:02.591Z,94435.00
2024-01-16T10:42:02.567Z,94432.00
2024-01-16T10:43:02.662Z,94429.00
2024-01-16T10:44:02.607Z,94426.00
2024-01-16T10:45:02.647Z,94428.00
2024-01-16T10:46:02.630Z,94430.00
2024-01-16T10:47:02.596Z,94420.00
2024-01-16T10:48:02.764Z,94423.00
2024-01-16T10:49:02.661Z,94419.00
2024-01-16T10:50:02.790Z,94417.00
2024-01-16T10:51:02.615Z,94425.00
2024-01-16T10:52:02.626Z,94421.00
2024-01-16T10:53:02.587Z,94420.00
2024-01-16T10:54:02.588Z,94413.00
2024-01-16T10:55:02.648Z,94420.00
2024-01-16T10:56:02.585Z,94420.00
2024-01-16T10:57:02.646Z,94416.00
2024-01-16T10:58:02.622Z,94414.00
2024-01-16T10:59:02.616Z,94414.00
2024-01-16T11:00:02.628Z,94413.00
2024-01-16T11:01:02.678Z,94408.00
2024-01-16T11:02:02.645Z,94409.00
2024-01-16T11:03:02.683Z,94408.00
2024-01-16T11:04:02.690Z,94404.00
2024-01-16T11:05:02.637Z,94405.00
2024-01-16T11:06:02.809Z,94405.00
2024-01-16T11:07:02.615Z,94402.00
2024-01-16T11:08:02.635Z,94400.00
2024-01-16T11:09:04.298Z,94398.00
2024-01-16T11:10:02.639Z,94398.00
2024-01-16T11:11:02.647Z,94395.00
2024-01-16T11:12:02.708Z,94395.00
2024-01-16T11:13:02.644Z,94390.00
2024-01-16T11:14:02.652Z,94389.00
2024-01-16T11:15:03.129Z,94390.00
2024-01-16T11:16:02.643Z,94390.00
2024-01-16T11:17:02.627Z,94382.00
2024-01-16T11:18:02.767Z,94380.00
2024-01-16T11:20:14.365Z,94382.00
2024-01-16T11:21:07.781Z,94377.00
2024-01-16T11:22:03.822Z,94377.00
2024-01-16T11:23:02.693Z,94372.00
2024-01-16T11:24:02.725Z,94368.00
2024-01-16T11:25:03.144Z,94368.00
2024-01-16T11:26:02.719Z,94366.00
2024-01-16T11:27:02.808Z,94366.00
2024-01-16T11:28:02.708Z,94367.00
2024-01-16T11:29:02.685Z,94360.00
2024-01-16T11:30:02.806Z,94362.00
2024-01-16T11:31:02.802Z,94359.00
2024-01-16T11:33:02.841Z,94354.00
2024-01-16T11:34:03.200Z,94350.00
2024-01-16T11:35:02.903Z,94341.00
2024-01-16T11:36:02.944Z,94346.00
2024-01-16T11:37:02.746Z,94342.00
2024-01-16T11:38:02.683Z,94340.00
2024-01-16T11:39:02.796Z,94335.00
2024-01-16T11:40:03.176Z,94334.00
2024-01-16T11:41:02.761Z,94333.00
2024-01-16T11:42:02.738Z,94320.00
2024-01-16T11:43:02.789Z,94328.00
2024-01-16T11:44:02.726Z,94323.00
2024-01-16T11:45:02.792Z,94321.00
2024-01-16T11:46:02.718Z,94318.00
2024-01-16T11:47:02.763Z,94313.00
2024-01-16T11:48:02.923Z,94309.00